Elliston, Canada
Current Conditions -  °F | °C
As of 10:00 AM on Wednesday 26 Nov 2014 (Local Time) from CYYT Reporting Station
Broken Clouds Broken Clouds  
Wind Chill: 32°   Ceiling: 19000
Heat Index: 43°   Visibility: 15mi
Dew Point: 34°   Wind: 31mph
Humidity: 70%   Direction: 270°W
Pressure: 29.84"   Gusts: 40mph
Location:  48.62°N, 53.03°W
Report Text: CYYT 261300Z 27027G35KT 15SM SCT030 BKN190 06/01 A2984 RMK SC3AC4 SLP107
Loading
Personal Weather Stations






























Interactive Weather Map New forecast layout! Learn more

10-Day Weather Forecast

Advertisements
Track Severe Weather on mobile